Time;durP1;ratioP1;P1;durP2;ratioP2;P2;SDS_P1;SDS_P2;PMS_P1;PMS_P2;Temp;Humidity;BMP_temperature;BMP_pressure;BME280_temperature;BME280_humidity;BME280_pressure;Samples;Min_cycle;Max_cycle;Signal;HPM_P1;HPM_P2
2022/09/24 00:00:39;;;;;;;4.40;4.00;;;;;;;;;;5068477;28;20195;-79
2022/09/24 00:03:04;;;;;;;4.57;4.10;;;;;;;;;;5061455;28;20191;-79
2022/09/24 00:05:29;;;;;;;4.43;4.03;;;;;;;;;;5065649;28;20199;-79
2022/09/24 00:07:55;;;;;;;4.17;3.40;;;;;;;;;;5072380;28;20190;-79
2022/09/24 00:10:22;;;;;;;5.00;4.23;;;;;;;;;;5065930;28;20214;-79
2022/09/24 00:12:47;;;;;;;4.20;3.80;;;;;;;;;;5069146;28;20191;-79
2022/09/24 00:15:12;;;;;;;4.07;3.77;;;;;;;;;;5069935;28;20190;-79
2022/09/24 00:17:37;;;;;;;4.13;3.73;;;;;;;;;;5071151;28;20199;-79
2022/09/24 00:20:03;;;;;;;3.73;3.40;;;;;;;;;;5067838;28;20184;-79
2022/09/24 00:22:30;;;;;;;4.20;3.80;;;;;;;;;;5072773;28;20209;-80
2022/09/24 00:27:40;;;;;;;4.03;3.60;;;;;;;;;;5061214;28;20211;-79
2022/09/24 00:30:05;;;;;;;4.43;3.60;;;;;;;;;;5059219;28;20214;-80
2022/09/24 00:32:30;;;;;;;5.20;3.40;;;;;;;;;;5061113;28;20202;-80
2022/09/24 00:34:56;;;;;;;4.00;3.60;;;;;;;;;;5067813;28;20184;-79
2022/09/24 00:37:21;;;;;;;7.27;3.77;;;;;;;;;;5070601;28;20211;-79
2022/09/24 00:39:46;;;;;;;4.23;3.83;;;;;;;;;;5070135;28;20172;-79
2022/09/24 00:42:12;;;;;;;4.57;3.87;;;;;;;;;;5064776;28;20189;-79
2022/09/24 00:44:40;;;;;;;4.90;4.00;;;;;;;;;;5071425;28;20261;-79
2022/09/24 00:47:20;;;;;;;4.40;3.37;;;;;;;;;;5068624;28;20180;-79
2022/09/24 00:49:47;;;;;;;4.10;3.80;;;;;;;;;;5069907;28;20171;-79
2022/09/24 00:52:12;;;;;;;4.43;3.97;;;;;;;;;;5068709;28;20210;-79
2022/09/24 00:54:38;;;;;;;4.43;4.03;;;;;;;;;;5065806;28;20175;-79
2022/09/24 00:57:03;;;;;;;4.87;3.97;;;;;;;;;;5068221;28;20171;-79
2022/09/24 00:59:29;;;;;;;8.00;4.30;;;;;;;;;;5068294;28;20171;-79
2022/09/24 01:01:56;;;;;;;4.47;4.07;;;;;;;;;;5066537;28;20270;-79
2022/09/24 01:04:22;;;;;;;5.83;4.37;;;;;;;;;;5066822;28;20177;-79
2022/09/24 01:06:48;;;;;;;5.10;4.10;;;;;;;;;;5059684;28;20175;-79
2022/09/24 01:09:13;;;;;;;5.00;4.50;;;;;;;;;;5067728;28;20186;-80
2022/09/24 01:11:38;;;;;;;5.27;4.77;;;;;;;;;;5066180;28;20183;-80
2022/09/24 01:14:04;;;;;;;5.37;4.87;;;;;;;;;;5061315;28;20241;-79
2022/09/24 01:16:37;;;;;;;6.57;5.80;;;;;;;;;;5070276;28;20171;-79
2022/09/24 01:19:08;;;;;;;6.00;5.20;;;;;;;;;;5066473;28;20171;-79
2022/09/24 01:21:42;;;;;;;5.60;5.10;;;;;;;;;;5064983;28;20269;-79
2022/09/24 01:24:27;;;;;;;6.90;6.20;;;;;;;;;;5067077;28;20226;-79
2022/09/24 01:27:04;;;;;;;9.83;7.10;;;;;;;;;;5068038;28;20208;-79
2022/09/24 01:29:51;;;;;;;8.10;7.07;;;;;;;;;;5068592;28;20178;-79
2022/09/24 01:32:21;;;;;;;7.60;6.80;;;;;;;;;;5067010;28;20293;-79
2022/09/24 01:34:51;;;;;;;7.30;6.60;;;;;;;;;;5058383;28;20177;-79
2022/09/24 01:37:17;;;;;;;8.07;7.27;;;;;;;;;;5063833;28;20195;-79
2022/09/24 01:39:44;;;;;;;10.43;8.03;;;;;;;;;;5067140;28;20171;-79
2022/09/24 01:42:09;;;;;;;8.70;7.80;;;;;;;;;;5068185;28;20182;-79
2022/09/24 01:44:38;;;;;;;10.43;8.00;;;;;;;;;;5066631;28;20259;-79
2022/09/24 01:47:05;;;;;;;9.67;8.77;;;;;;;;;;5080805;28;20190;-79
2022/09/24 01:49:31;;;;;;;8.40;7.60;;;;;;;;;;5069138;28;20191;-79
2022/09/24 01:51:58;;;;;;;10.10;9.03;;;;;;;;;;5062969;28;20207;-79
2022/09/24 01:54:38;;;;;;;9.47;8.53;;;;;;;;;;5067942;28;20185;-79
2022/09/24 01:57:08;;;;;;;12.30;9.43;;;;;;;;;;5067127;28;20184;-79
2022/09/24 01:59:39;;;;;;;9.60;8.00;;;;;;;;;;5067838;28;20529;-80
2022/09/24 02:02:04;;;;;;;10.63;7.93;;;;;;;;;;5062592;28;20186;-79
2022/09/24 02:04:32;;;;;;;9.20;7.63;;;;;;;;;;5067431;28;20188;-79
2022/09/24 02:07:03;;;;;;;10.57;8.37;;;;;;;;;;5060788;28;20187;-79
2022/09/24 02:09:29;;;;;;;9.27;8.27;;;;;;;;;;5068179;28;20181;-79
2022/09/24 02:11:55;;;;;;;8.63;7.83;;;;;;;;;;5066272;28;20205;-79
2022/09/24 02:14:21;;;;;;;9.00;7.83;;;;;;;;;;5059933;28;20183;-79
2022/09/24 02:16:47;;;;;;;9.20;8.30;;;;;;;;;;5062909;28;20171;-79
2022/09/24 02:19:14;;;;;;;8.57;7.77;;;;;;;;;;5066554;28;20204;-79
2022/09/24 02:21:40;;;;;;;9.37;8.10;;;;;;;;;;5069075;28;20243;-79
2022/09/24 02:24:09;;;;;;;9.10;8.03;;;;;;;;;;5065685;28;20319;-79
2022/09/24 02:26:34;;;;;;;11.17;8.27;;;;;;;;;;5071369;28;20204;-80
2022/09/24 02:28:59;;;;;;;9.07;7.40;;;;;;;;;;5058789;28;20180;-80
2022/09/24 02:31:28;;;;;;;7.63;6.83;;;;;;;;;;5062601;28;20190;-80
2022/09/24 02:36:38;;;;;;;9.63;7.97;;;;;;;;;;5065882;28;20251;-79
2022/09/24 02:39:04;;;;;;;9.37;8.47;;;;;;;;;;5062491;28;20275;-79
2022/09/24 02:41:30;;;;;;;8.20;7.40;;;;;;;;;;5069061;28;20166;-80
2022/09/24 02:43:55;;;;;;;9.93;7.43;;;;;;;;;;5067932;28;20182;-79
2022/09/24 02:46:20;;;;;;;8.93;8.07;;;;;;;;;;5064372;28;20188;-79
2022/09/24 02:48:46;;;;;;;8.03;7.23;;;;;;;;;;5065535;28;20176;-80
2022/09/24 02:51:11;;;;;;;9.77;7.53;;;;;;;;;;5064592;28;20796;-80
2022/09/24 02:53:36;;;;;;;10.93;8.33;;;;;;;;;;5052146;28;20221;-80
2022/09/24 02:56:02;;;;;;;8.47;7.57;;;;;;;;;;5064378;28;20174;-80
2022/09/24 02:58:28;;;;;;;8.73;7.83;;;;;;;;;;5067807;28;20216;-80
2022/09/24 03:00:56;;;;;;;8.30;7.30;;;;;;;;;;5063617;28;20175;-80
2022/09/24 03:03:22;;;;;;;8.90;7.90;;;;;;;;;;5067997;28;20178;-80
2022/09/24 03:05:47;;;;;;;9.63;8.13;;;;;;;;;;5061974;28;20204;-80
2022/09/24 03:08:12;;;;;;;10.17;8.63;;;;;;;;;;5061740;28;20188;-80
2022/09/24 03:10:38;;;;;;;9.13;7.80;;;;;;;;;;5065269;28;20190;-80
2022/09/24 03:13:03;;;;;;;7.67;6.97;;;;;;;;;;5067899;28;20317;-80
2022/09/24 03:15:29;;;;;;;8.97;8.07;;;;;;;;;;5068430;28;20444;-80
2022/09/24 03:17:54;;;;;;;9.47;7.93;;;;;;;;;;5065634;28;20198;-80
2022/09/24 03:20:19;;;;;;;7.90;7.17;;;;;;;;;;5060900;28;20175;-80
2022/09/24 03:22:48;;;;;;;7.30;6.60;;;;;;;;;;5067308;28;20218;-80
2022/09/24 03:25:13;;;;;;;8.23;6.70;;;;;;;;;;5070192;28;20179;-80
2022/09/24 03:27:39;;;;;;;7.53;6.83;;;;;;;;;;5070637;28;20417;-80
2022/09/24 03:32:48;;;;;;;6.60;6.00;;;;;;;;;;5070768;28;20209;-80
2022/09/24 03:35:14;;;;;;;7.93;6.63;;;;;;;;;;5066627;28;20175;-80
2022/09/24 03:37:40;;;;;;;7.60;6.90;;;;;;;;;;5065352;28;20224;-80
2022/09/24 03:40:06;;;;;;;7.47;6.67;;;;;;;;;;5067974;28;20230;-80
2022/09/24 03:42:32;;;;;;;7.30;5.40;;;;;;;;;;5069571;28;20202;-80
2022/09/24 03:44:58;;;;;;;6.53;5.70;;;;;;;;;;5071385;28;20194;-80
2022/09/24 03:47:23;;;;;;;6.53;5.83;;;;;;;;;;5068546;28;20175;-80
2022/09/24 03:49:49;;;;;;;7.17;6.30;;;;;;;;;;5066522;28;20191;-80
2022/09/24 03:52:14;;;;;;;6.00;5.40;;;;;;;;;;5072527;28;20194;-80
2022/09/24 03:54:39;;;;;;;8.20;6.13;;;;;;;;;;5066686;28;20179;-80
2022/09/24 03:57:04;;;;;;;9.33;6.60;;;;;;;;;;5064462;28;20184;-80
2022/09/24 03:59:29;;;;;;;7.67;6.97;;;;;;;;;;5070157;28;20170;-80
2022/09/24 04:01:55;;;;;;;6.90;6.30;;;;;;;;;;5067801;28;20174;-80
2022/09/24 04:04:22;;;;;;;8.93;7.70;;;;;;;;;;5056514;28;20180;-80
2022/09/24 04:06:48;;;;;;;7.10;6.40;;;;;;;;;;5062955;28;20182;-80
2022/09/24 04:09:13;;;;;;;8.10;6.17;;;;;;;;;;5067600;28;20182;-80
2022/09/24 04:11:39;;;;;;;8.43;6.60;;;;;;;;;;5071900;28;20189;-80
2022/09/24 04:14:04;;;;;;;7.87;7.07;;;;;;;;;;5068808;28;20179;-80
2022/09/24 04:16:29;;;;;;;6.80;6.20;;;;;;;;;;5071541;28;20177;-80
2022/09/24 04:18:54;;;;;;;7.13;6.40;;;;;;;;;;5071000;28;20178;-80
2022/09/24 04:21:20;;;;;;;6.70;6.10;;;;;;;;;;5078038;28;20185;-80
2022/09/24 04:23:45;;;;;;;6.93;5.87;;;;;;;;;;5065120;28;20223;-80
2022/09/24 04:26:11;;;;;;;6.10;5.60;;;;;;;;;;5071338;28;20186;-80
2022/09/24 04:28:36;;;;;;;7.30;5.50;;;;;;;;;;5066801;28;20263;-80
2022/09/24 04:31:01;;;;;;;7.47;5.90;;;;;;;;;;5067357;28;20277;-80
2022/09/24 04:33:27;;;;;;;6.50;5.80;;;;;;;;;;5064711;28;20237;-80
2022/09/24 04:35:52;;;;;;;5.83;5.23;;;;;;;;;;5063319;28;20181;-80
2022/09/24 04:38:20;;;;;;;7.20;5.10;;;;;;;;;;5066999;28;20191;-80
2022/09/24 04:40:45;;;;;;;6.40;5.80;;;;;;;;;;5058049;28;20179;-80
2022/09/24 04:43:10;;;;;;;6.40;5.50;;;;;;;;;;5064797;28;20179;-79
2022/09/24 04:45:36;;;;;;;6.17;5.57;;;;;;;;;;5069993;28;20189;-79
2022/09/24 04:48:01;;;;;;;6.50;5.87;;;;;;;;;;5066037;28;20181;-79
2022/09/24 04:50:32;;;;;;;8.90;5.20;;;;;;;;;;5070217;28;20176;-79
2022/09/24 04:52:57;;;;;;;6.87;5.20;;;;;;;;;;5063510;28;20194;-79
2022/09/24 04:55:23;;;;;;;5.47;4.97;;;;;;;;;;5063813;28;20170;-79
2022/09/24 04:57:49;;;;;;;5.63;5.13;;;;;;;;;;5069643;28;20201;-79
2022/09/24 05:00:16;;;;;;;5.47;4.97;;;;;;;;;;5064816;28;20291;-79
2022/09/24 05:02:42;;;;;;;7.63;6.80;;;;;;;;;;5071144;28;20171;-79
2022/09/24 05:05:07;;;;;;;5.97;4.23;;;;;;;;;;5059030;28;20267;-80
2022/09/24 05:07:32;;;;;;;7.10;4.03;;;;;;;;;;5060810;28;20174;-80
2022/09/24 05:09:58;;;;;;;6.20;4.40;;;;;;;;;;5064700;28;20179;-80
2022/09/24 05:12:23;;;;;;;4.80;4.40;;;;;;;;;;5061992;28;20200;-80
2022/09/24 05:14:48;;;;;;;6.07;5.47;;;;;;;;;;5067186;28;20168;-80
2022/09/24 05:17:14;;;;;;;6.50;4.17;;;;;;;;;;5067082;28;20233;-80
2022/09/24 05:19:39;;;;;;;5.87;4.70;;;;;;;;;;5066099;28;20179;-80
2022/09/24 05:22:04;;;;;;;5.17;4.60;;;;;;;;;;5067462;28;20188;-80
2022/09/24 05:24:30;;;;;;;7.17;4.90;;;;;;;;;;5067041;28;20243;-80
2022/09/24 05:27:10;;;;;;;5.47;4.73;;;;;;;;;;5066961;28;20269;-80
2022/09/24 05:29:36;;;;;;;5.50;4.50;;;;;;;;;;5068798;28;20178;-80
2022/09/24 05:32:02;;;;;;;6.17;4.30;;;;;;;;;;5067766;28;20214;-80
2022/09/24 05:34:28;;;;;;;5.03;4.43;;;;;;;;;;5066442;28;20201;-80
2022/09/24 05:36:54;;;;;;;4.23;3.93;;;;;;;;;;5059993;28;20171;-80
2022/09/24 05:39:19;;;;;;;4.43;4.03;;;;;;;;;;5068711;28;20187;-80
2022/09/24 05:41:44;;;;;;;5.47;4.33;;;;;;;;;;5062989;28;20183;-80
2022/09/24 05:44:10;;;;;;;5.53;4.83;;;;;;;;;;5063492;28;20210;-80
2022/09/24 05:46:35;;;;;;;5.40;4.90;;;;;;;;;;5067506;28;20194;-80
2022/09/24 05:49:00;;;;;;;5.13;4.43;;;;;;;;;;5068892;28;20251;-80
2022/09/24 05:51:25;;;;;;;4.97;4.17;;;;;;;;;;5064813;28;20170;-80
2022/09/24 05:53:51;;;;;;;6.17;4.07;;;;;;;;;;5062141;28;20199;-80
2022/09/24 05:56:16;;;;;;;5.53;4.17;;;;;;;;;;5058989;28;20183;-80
2022/09/24 05:58:41;;;;;;;5.80;4.33;;;;;;;;;;5059757;28;20181;-80
2022/09/24 06:01:07;;;;;;;7.33;4.80;;;;;;;;;;5055303;28;20195;-80
2022/09/24 06:03:32;;;;;;;4.60;4.13;;;;;;;;;;5065272;28;20179;-80
2022/09/24 06:06:03;;;;;;;4.47;4.07;;;;;;;;;;5052512;28;20206;-80
2022/09/24 06:08:29;;;;;;;6.93;6.23;;;;;;;;;;5061690;28;20180;-80
2022/09/24 06:11:02;;;;;;;6.40;5.53;;;;;;;;;;5061448;28;20191;-80
2022/09/24 06:13:27;;;;;;;8.27;7.57;;;;;;;;;;5065586;28;20302;-80
2022/09/24 06:15:58;;;;;;;6.60;6.00;;;;;;;;;;5063778;28;20266;-80
2022/09/24 06:18:23;;;;;;;5.57;5.07;;;;;;;;;;5067233;28;20181;-80
2022/09/24 06:20:49;;;;;;;7.27;5.67;;;;;;;;;;5063674;28;20176;-80
2022/09/24 06:23:14;;;;;;;16.10;11.27;;;;;;;;;;5062090;28;20229;-79
2022/09/24 06:25:39;;;;;;;12.37;9.13;;;;;;;;;;5061716;28;20246;-80
2022/09/24 06:28:04;;;;;;;13.70;12.23;;;;;;;;;;5060219;28;20231;-80
2022/09/24 06:30:33;;;;;;;12.47;11.23;;;;;;;;;;5068594;28;20184;-80
2022/09/24 06:33:04;;;;;;;9.70;6.83;;;;;;;;;;5055387;28;20231;-80
2022/09/24 06:35:30;;;;;;;9.90;8.90;;;;;;;;;;5065326;28;20182;-80
2022/09/24 06:37:55;;;;;;;8.73;7.07;;;;;;;;;;5062926;28;20212;-79
2022/09/24 06:40:24;;;;;;;8.30;7.50;;;;;;;;;;5065258;28;20211;-80
2022/09/24 06:42:52;;;;;;;8.17;6.13;;;;;;;;;;5063079;28;20242;-80
2022/09/24 06:45:17;;;;;;;5.87;5.37;;;;;;;;;;5076914;28;20205;-80
2022/09/24 06:47:43;;;;;;;6.87;5.77;;;;;;;;;;5064656;28;20215;-80
2022/09/24 06:50:08;;;;;;;5.43;5.00;;;;;;;;;;5063370;28;20190;-80
2022/09/24 06:52:33;;;;;;;9.40;6.03;;;;;;;;;;5066109;28;20257;-80
2022/09/24 06:54:59;;;;;;;7.00;5.50;;;;;;;;;;5061459;28;20233;-80
2022/09/24 06:57:24;;;;;;;7.03;5.40;;;;;;;;;;5062366;28;20181;-80
2022/09/24 06:59:50;;;;;;;5.93;5.43;;;;;;;;;;5058166;28;20176;-80
2022/09/24 07:02:15;;;;;;;6.53;5.17;;;;;;;;;;5064879;28;20187;-79
2022/09/24 07:04:41;;;;;;;7.00;5.87;;;;;;;;;;5064679;28;20205;-80
2022/09/24 07:09:49;;;;;;;5.97;5.10;;;;;;;;;;5069043;28;20186;-80
2022/09/24 07:12:15;;;;;;;4.87;4.30;;;;;;;;;;5067941;28;20192;-80
2022/09/24 07:14:40;;;;;;;6.57;4.63;;;;;;;;;;5066195;28;20180;-80
2022/09/24 07:17:05;;;;;;;5.67;5.13;;;;;;;;;;5067833;28;20184;-80
2022/09/24 07:19:31;;;;;;;5.80;4.80;;;;;;;;;;5068430;28;20171;-81
2022/09/24 07:21:56;;;;;;;6.93;4.53;;;;;;;;;;5062135;28;20194;-81
2022/09/24 07:24:21;;;;;;;8.03;5.10;;;;;;;;;;5067923;28;20309;-80
2022/09/24 07:26:47;;;;;;;8.00;7.30;;;;;;;;;;5074084;28;20204;-80
2022/09/24 07:29:12;;;;;;;6.40;5.23;;;;;;;;;;5063522;28;20177;-81
2022/09/24 07:31:37;;;;;;;5.30;4.40;;;;;;;;;;5071450;28;20230;-80
2022/09/24 07:34:05;;;;;;;5.37;4.40;;;;;;;;;;5055271;28;20270;-80
2022/09/24 07:36:30;;;;;;;6.83;4.70;;;;;;;;;;5067459;28;20268;-80
2022/09/24 07:38:56;;;;;;;12.37;11.07;;;;;;;;;;5065640;28;20263;-80
2022/09/24 07:41:21;;;;;;;5.47;4.03;;;;;;;;;;5069417;28;20184;-81
2022/09/24 07:43:46;;;;;;;5.73;5.23;;;;;;;;;;5071682;28;20184;-80
2022/09/24 07:46:12;;;;;;;5.53;5.03;;;;;;;;;;5068981;28;20291;-81
2022/09/24 07:48:37;;;;;;;5.90;4.60;;;;;;;;;;5058484;28;20178;-80
2022/09/24 07:51:04;;;;;;;4.57;3.93;;;;;;;;;;5058090;28;20262;-80
2022/09/24 07:53:30;;;;;;;5.00;4.50;;;;;;;;;;5061805;28;20283;-80
2022/09/24 07:55:57;;;;;;;4.20;3.80;;;;;;;;;;5065950;28;20265;-81
2022/09/24 07:58:22;;;;;;;4.60;4.20;;;;;;;;;;5068151;28;20298;-80
2022/09/24 08:00:48;;;;;;;5.63;4.03;;;;;;;;;;5067469;28;20191;-80
2022/09/24 08:03:13;;;;;;;5.13;4.63;;;;;;;;;;5059327;28;21754;-81
2022/09/24 08:05:44;;;;;;;4.73;4.33;;;;;;;;;;5067688;28;20221;-80
2022/09/24 08:08:09;;;;;;;5.33;4.83;;;;;;;;;;5068776;28;20214;-80
2022/09/24 08:10:34;;;;;;;4.50;4.10;;;;;;;;;;5069384;28;20181;-80
2022/09/24 08:13:03;;;;;;;4.93;3.97;;;;;;;;;;5070224;28;20227;-80
2022/09/24 08:15:28;;;;;;;4.53;4.13;;;;;;;;;;5089508;28;20177;-80
2022/09/24 08:17:58;;;;;;;4.43;3.70;;;;;;;;;;5073905;28;20169;-80
2022/09/24 08:20:24;;;;;;;4.10;3.80;;;;;;;;;;5067349;28;20177;-80
2022/09/24 08:22:49;;;;;;;4.60;3.77;;;;;;;;;;5063221;28;20232;-80
2022/09/24 08:25:14;;;;;;;5.43;3.80;;;;;;;;;;5062388;28;20193;-80
2022/09/24 08:27:39;;;;;;;4.43;3.50;;;;;;;;;;5057231;28;20236;-80
2022/09/24 08:30:05;;;;;;;4.10;3.70;;;;;;;;;;5062730;28;20253;-80
2022/09/24 08:32:30;;;;;;;4.97;3.50;;;;;;;;;;5066285;28;20612;-80
2022/09/24 08:34:55;;;;;;;3.93;3.43;;;;;;;;;;5065068;28;20273;-81
2022/09/24 08:37:21;;;;;;;4.00;3.67;;;;;;;;;;5064585;28;20181;-80
2022/09/24 08:39:46;;;;;;;4.27;3.80;;;;;;;;;;5079897;28;20179;-81
2022/09/24 08:42:21;;;;;;;3.67;3.37;;;;;;;;;;5063621;28;20260;-80
2022/09/24 08:47:50;;;;;;;3.40;3.03;;;;;;;;;;5066312;28;20243;-81
2022/09/24 08:50:18;;;;;;;3.43;3.00;;;;;;;;;;5062654;28;20220;-81
2022/09/24 08:52:57;;;;;;;2.90;2.70;;;;;;;;;;5062960;28;20194;-81
2022/09/24 08:55:39;;;;;;;3.53;3.23;;;;;;;;;;5059917;28;20176;-81
2022/09/24 08:58:15;;;;;;;5.13;2.90;;;;;;;;;;5061125;28;20206;-82
2022/09/24 09:00:50;;;;;;;6.17;3.63;;;;;;;;;;5060395;28;20185;-81
2022/09/24 09:03:27;;;;;;;4.60;4.20;;;;;;;;;;5061399;28;20255;-81
2022/09/24 09:05:55;;;;;;;3.00;2.80;;;;;;;;;;5061006;28;20204;-81
2022/09/24 09:08:33;;;;;;;2.70;2.50;;;;;;;;;;5063252;28;20264;-81
2022/09/24 09:11:01;;;;;;;3.57;3.23;;;;;;;;;;5063958;28;20189;-81
2022/09/24 09:13:39;;;;;;;3.77;3.47;;;;;;;;;;5073928;28;20209;-81
2022/09/24 09:16:08;;;;;;;2.80;2.60;;;;;;;;;;5063127;28;20176;-82
2022/09/24 09:18:41;;;;;;;3.10;2.77;;;;;;;;;;5059387;28;20174;-82
2022/09/24 09:21:15;;;;;;;3.33;2.83;;;;;;;;;;5061506;28;20186;-81
2022/09/24 09:23:46;;;;;;;3.47;2.80;;;;;;;;;;5059716;28;20226;-81
2022/09/24 09:26:12;;;;;;;3.63;2.60;;;;;;;;;;5055848;28;20182;-81
2022/09/24 09:28:37;;;;;;;2.53;2.33;;;;;;;;;;5065571;28;20189;-80
2022/09/24 09:31:19;;;;;;;2.40;2.20;;;;;;;;;;5066114;28;20228;-81
2022/09/24 09:33:44;;;;;;;2.87;2.10;;;;;;;;;;5064798;28;20472;-80
2022/09/24 09:36:12;;;;;;;2.97;2.77;;;;;;;;;;5065202;28;20178;-80
2022/09/24 09:38:46;;;;;;;2.70;2.43;;;;;;;;;;5063664;28;20625;-81
2022/09/24 09:41:31;;;;;;;2.80;2.50;;;;;;;;;;5069058;28;20174;-80
2022/09/24 09:44:07;;;;;;;2.70;2.50;;;;;;;;;;5028545;28;20197;-80
2022/09/24 09:46:34;;;;;;;2.40;2.20;;;;;;;;;;5068446;28;20211;-80
2022/09/24 09:49:01;;;;;;;2.70;2.50;;;;;;;;;;5067020;28;20174;-80
2022/09/24 09:51:29;;;;;;;2.90;2.70;;;;;;;;;;5067745;28;20271;-80
2022/09/24 09:54:01;;;;;;;2.90;2.30;;;;;;;;;;5084377;28;20205;-80
2022/09/24 09:56:28;;;;;;;2.63;2.43;;;;;;;;;;5067631;28;20174;-81
2022/09/24 09:59:07;;;;;;;2.20;2.00;;;;;;;;;;5059763;28;20183;-81
2022/09/24 10:01:34;;;;;;;12.83;8.93;;;;;;;;;;5056896;28;20176;-80
2022/09/24 10:04:03;;;;;;;4.23;3.83;;;;;;;;;;5060307;28;20184;-81
2022/09/24 10:06:30;;;;;;;2.60;2.40;;;;;;;;;;5054202;28;20229;-80
2022/09/24 10:09:17;;;;;;;2.50;2.30;;;;;;;;;;5065346;28;20191;-81
2022/09/24 10:11:43;;;;;;;2.53;2.33;;;;;;;;;;5066801;28;20177;-81
2022/09/24 10:14:12;;;;;;;3.37;3.07;;;;;;;;;;5069255;28;20209;-80
2022/09/24 10:16:39;;;;;;;3.93;3.53;;;;;;;;;;5068640;28;20180;-80
2022/09/24 10:19:13;;;;;;;6.23;4.40;;;;;;;;;;5064125;28;20198;-81
2022/09/24 10:21:38;;;;;;;2.70;2.50;;;;;;;;;;5056938;28;20178;-80
2022/09/24 10:24:12;;;;;;;2.70;2.50;;;;;;;;;;5077685;28;20236;-80
2022/09/24 10:26:39;;;;;;;2.23;2.07;;;;;;;;;;5061534;28;20244;-81
2022/09/24 10:31:49;;;;;;;2.63;2.43;;;;;;;;;;5059969;28;20206;-81
2022/09/24 10:34:27;;;;;;;2.80;2.60;;;;;;;;;;5067505;28;20179;-80
2022/09/24 10:36:57;;;;;;;2.97;2.77;;;;;;;;;;5066270;28;20201;-81
2022/09/24 10:39:22;;;;;;;3.00;2.47;;;;;;;;;;5068136;28;20185;-81
2022/09/24 10:41:52;;;;;;;3.90;3.53;;;;;;;;;;5064964;28;20186;-81
2022/09/24 10:44:19;;;;;;;3.77;2.90;;;;;;;;;;5070978;28;20284;-81
2022/09/24 10:46:56;;;;;;;2.90;2.70;;;;;;;;;;5068579;28;20196;-82
2022/09/24 10:49:21;;;;;;;2.67;2.47;;;;;;;;;;5070564;28;20236;-80
2022/09/24 10:51:53;;;;;;;3.80;2.50;;;;;;;;;;5070219;28;20174;-80
2022/09/24 10:54:31;;;;;;;2.93;2.73;;;;;;;;;;5065748;28;20200;-79
2022/09/24 10:56:58;;;;;;;3.17;2.87;;;;;;;;;;5071779;28;20174;-79
2022/09/24 10:59:56;;;;;;;2.70;2.50;;;;;;;;;;5084848;28;20187;-79
2022/09/24 11:02:30;;;;;;;3.00;2.63;;;;;;;;;;5015231;28;20206;-78
2022/09/24 11:04:57;;;;;;;2.77;2.57;;;;;;;;;;5061302;28;20214;-78
2022/09/24 11:07:42;;;;;;;3.00;2.80;;;;;;;;;;5070400;28;20221;-78
2022/09/24 11:10:11;;;;;;;2.40;2.20;;;;;;;;;;5016945;28;20190;-78
2022/09/24 11:12:42;;;;;;;3.53;2.40;;;;;;;;;;5067376;28;20229;-78
2022/09/24 11:15:26;;;;;;;2.87;2.63;;;;;;;;;;5063868;28;20186;-79
2022/09/24 11:18:03;;;;;;;2.40;2.20;;;;;;;;;;5070127;28;20233;-77
2022/09/24 11:20:41;;;;;;;3.33;3.00;;;;;;;;;;5067997;28;20178;-77
2022/09/24 11:23:16;;;;;;;3.23;2.83;;;;;;;;;;5063866;28;20235;-77
2022/09/24 11:25:59;;;;;;;3.00;2.70;;;;;;;;;;5066194;28;20276;-77
2022/09/24 11:28:52;;;;;;;3.87;3.47;;;;;;;;;;5063360;28;20269;-77
2022/09/24 11:31:17;;;;;;;5.13;3.83;;;;;;;;;;5066449;28;20206;-76
2022/09/24 11:33:49;;;;;;;3.90;3.60;;;;;;;;;;5070254;28;20236;-77
2022/09/24 11:36:28;;;;;;;3.90;3.60;;;;;;;;;;5062121;28;20620;-77
2022/09/24 11:39:02;;;;;;;4.23;3.83;;;;;;;;;;5079380;28;20170;-77
2022/09/24 11:41:36;;;;;;;6.07;5.57;;;;;;;;;;5070961;28;20166;-77
2022/09/24 11:44:10;;;;;;;6.50;5.77;;;;;;;;;;5067540;28;20691;-77
2022/09/24 11:46:54;;;;;;;5.80;5.30;;;;;;;;;;5081628;28;20226;-78
2022/09/24 11:49:31;;;;;;;8.93;8.13;;;;;;;;;;5065551;28;20179;-78
2022/09/24 11:51:56;;;;;;;4.13;3.73;;;;;;;;;;5059748;28;20247;-77
2022/09/24 11:54:21;;;;;;;7.13;6.53;;;;;;;;;;5062747;28;20184;-78
2022/09/24 11:56:49;;;;;;;4.93;3.60;;;;;;;;;;5076147;28;20231;-78
2022/09/24 11:59:33;;;;;;;3.93;3.63;;;;;;;;;;5079430;28;20180;-78
2022/09/24 12:02:25;;;;;;;3.60;3.30;;;;;;;;;;5069790;28;20170;-78
2022/09/24 12:04:53;;;;;;;3.93;3.17;;;;;;;;;;5062528;28;20195;-78
2022/09/24 12:07:22;;;;;;;3.77;3.43;;;;;;;;;;5064887;28;20204;-78
2022/09/24 12:09:54;;;;;;;4.00;3.60;;;;;;;;;;5059779;28;20211;-78
2022/09/24 12:12:25;;;;;;;3.73;3.40;;;;;;;;;;5070731;28;20226;-79
2022/09/24 12:15:03;;;;;;;3.43;3.13;;;;;;;;;;5069836;28;20175;-79
2022/09/24 12:17:33;;;;;;;4.17;3.30;;;;;;;;;;5061652;28;20172;-79
2022/09/24 12:20:06;;;;;;;4.30;3.87;;;;;;;;;;5064355;28;20243;-79
2022/09/24 12:22:58;;;;;;;4.10;3.80;;;;;;;;;;5066093;28;20182;-80
2022/09/24 12:25:25;;;;;;;4.17;3.50;;;;;;;;;;5060802;28;20216;-80
2022/09/24 12:27:51;;;;;;;4.90;4.10;;;;;;;;;;5062520;28;20478;-80
2022/09/24 12:33:24;;;;;;;4.43;4.00;;;;;;;;;;5064304;28;20289;-80
2022/09/24 12:36:14;;;;;;;4.67;4.17;;;;;;;;;;5077565;28;20205;-81
2022/09/24 12:38:42;;;;;;;4.67;4.37;;;;;;;;;;5063006;28;20264;-80
2022/09/24 12:41:07;;;;;;;4.70;4.30;;;;;;;;;;5070296;28;20220;-80
2022/09/24 12:43:33;;;;;;;4.40;4.00;;;;;;;;;;5065561;28;20212;-81
2022/09/24 12:46:00;;;;;;;4.50;4.10;;;;;;;;;;5064447;28;20176;-81
2022/09/24 12:48:27;;;;;;;4.20;3.90;;;;;;;;;;5060775;28;20186;-81
2022/09/24 12:50:59;;;;;;;4.37;3.97;;;;;;;;;;5074651;28;20187;-81
2022/09/24 12:53:27;;;;;;;5.13;4.00;;;;;;;;;;5064892;28;20206;-81
2022/09/24 12:55:57;;;;;;;4.43;4.03;;;;;;;;;;5057869;28;20176;-81
2022/09/24 12:58:42;;;;;;;7.20;5.70;;;;;;;;;;5069993;28;20175;-81
2022/09/24 13:01:07;;;;;;;4.63;4.23;;;;;;;;;;5073091;28;20226;-80
2022/09/24 13:03:34;;;;;;;4.47;4.07;;;;;;;;;;5069625;28;20209;-80
2022/09/24 13:06:00;;;;;;;4.67;4.03;;;;;;;;;;5070039;28;20200;-80
2022/09/24 13:08:33;;;;;;;5.93;4.97;;;;;;;;;;5069988;28;20196;-80
2022/09/24 13:10:59;;;;;;;4.73;4.40;;;;;;;;;;5064094;28;20182;-80
2022/09/24 13:13:31;;;;;;;5.63;4.60;;;;;;;;;;5066451;28;20258;-80
2022/09/24 13:16:15;;;;;;;4.87;4.47;;;;;;;;;;5067317;28;20299;-80
2022/09/24 13:18:42;;;;;;;4.80;4.40;;;;;;;;;;5066608;28;20209;-80
2022/09/24 13:21:17;;;;;;;4.20;3.80;;;;;;;;;;5061750;28;20180;-80
2022/09/24 13:23:44;;;;;;;5.53;4.80;;;;;;;;;;5071497;28;20224;-80
2022/09/24 13:26:12;;;;;;;4.80;4.30;;;;;;;;;;5067200;28;20184;-80
2022/09/24 13:28:37;;;;;;;4.37;3.97;;;;;;;;;;5067746;28;20175;-81
2022/09/24 13:31:22;;;;;;;5.23;3.87;;;;;;;;;;5059184;28;20189;-81
2022/09/24 13:33:53;;;;;;;5.23;4.80;;;;;;;;;;5087650;28;20210;-81
2022/09/24 13:36:27;;;;;;;5.17;3.90;;;;;;;;;;5067371;28;20178;-82
2022/09/24 13:39:15;;;;;;;4.47;4.07;;;;;;;;;;5062336;28;20193;-81
2022/09/24 13:41:46;;;;;;;4.33;3.93;;;;;;;;;;5058266;28;20187;-82
2022/09/24 13:44:15;;;;;;;5.13;4.73;;;;;;;;;;5064692;28;20176;-81
2022/09/24 13:46:41;;;;;;;4.97;4.50;;;;;;;;;;5069350;28;20177;-82
2022/09/24 13:49:11;;;;;;;5.77;5.23;;;;;;;;;;5069817;28;20214;-82
2022/09/24 13:51:37;;;;;;;4.87;4.47;;;;;;;;;;5067929;28;20192;-82
2022/09/24 13:54:18;;;;;;;4.93;4.53;;;;;;;;;;5048874;28;20292;-82
2022/09/24 13:56:54;;;;;;;4.93;4.43;;;;;;;;;;5066500;28;20173;-82
2022/09/24 13:59:26;;;;;;;4.40;4.10;;;;;;;;;;5067868;28;20202;-82
2022/09/24 14:01:52;;;;;;;5.27;4.37;;;;;;;;;;5073453;28;20212;-82
2022/09/24 14:04:19;;;;;;;4.43;3.80;;;;;;;;;;5065419;28;20215;-82
2022/09/24 14:06:52;;;;;;;5.10;4.70;;;;;;;;;;5069340;28;20180;-82
2022/09/24 14:09:31;;;;;;;5.27;3.90;;;;;;;;;;5057733;28;20176;-82
2022/09/24 14:11:58;;;;;;;4.20;3.90;;;;;;;;;;5068523;28;20254;-83
2022/09/24 14:14:25;;;;;;;6.03;5.30;;;;;;;;;;5059835;28;20171;-82
2022/09/24 14:16:53;;;;;;;4.73;4.27;;;;;;;;;;5070290;28;20174;-82
2022/09/24 14:19:19;;;;;;;4.77;4.10;;;;;;;;;;5064893;28;20176;-83
2022/09/24 14:21:50;;;;;;;4.83;4.33;;;;;;;;;;5066780;28;20167;-82
2022/09/24 14:24:36;;;;;;;4.60;4.20;;;;;;;;;;5066190;28;20229;-83
2022/09/24 14:27:06;;;;;;;4.83;4.43;;;;;;;;;;5027624;28;20221;-83
2022/09/24 14:29:41;;;;;;;6.83;4.43;;;;;;;;;;5059805;28;20451;-82
2022/09/24 14:32:16;;;;;;;4.70;4.17;;;;;;;;;;5067058;28;20174;-83
2022/09/24 14:34:42;;;;;;;5.50;4.90;;;;;;;;;;5052382;28;20175;-83
2022/09/24 14:37:16;;;;;;;5.23;4.83;;;;;;;;;;5064636;28;20181;-83
2022/09/24 14:39:42;;;;;;;5.50;5.00;;;;;;;;;;5063516;28;20194;-83
2022/09/24 14:42:09;;;;;;;5.67;5.20;;;;;;;;;;5064537;28;20173;-83
2022/09/24 14:44:37;;;;;;;5.50;5.00;;;;;;;;;;5064028;28;20173;-82
2022/09/24 14:47:02;;;;;;;5.40;4.90;;;;;;;;;;5064091;28;20192;-82
2022/09/24 14:49:41;;;;;;;6.27;5.60;;;;;;;;;;5054105;28;20167;-83
2022/09/24 14:52:24;;;;;;;6.07;5.47;;;;;;;;;;5058315;28;20188;-82
2022/09/24 14:54:58;;;;;;;8.37;7.37;;;;;;;;;;5064713;28;20178;-83
2022/09/24 14:57:24;;;;;;;7.60;6.77;;;;;;;;;;5064161;28;20173;-82
2022/09/24 14:59:50;;;;;;;6.87;6.27;;;;;;;;;;5065298;28;20197;-82
2022/09/24 15:02:25;;;;;;;4.33;3.93;;;;;;;;;;5082910;28;20180;-83
2022/09/24 15:04:51;;;;;;;5.07;4.27;;;;;;;;;;5064452;28;20190;-81
2022/09/24 15:07:27;;;;;;;5.63;4.40;;;;;;;;;;5069471;28;20180;-82
2022/09/24 15:09:54;;;;;;;5.07;4.63;;;;;;;;;;5073158;28;20178;-82
2022/09/24 15:12:21;;;;;;;7.13;6.40;;;;;;;;;;5057970;28;20218;-83